createdAt,value
2022-10-15T00:00:51.758Z,100.00
2022-10-15T00:03:18.317Z,100.00
2022-10-15T00:05:44.947Z,100.00
2022-10-15T00:08:12.865Z,100.00
2022-10-15T00:10:39.435Z,100.00
2022-10-15T00:13:06.681Z,100.00
2022-10-15T00:15:36.526Z,100.00
2022-10-15T00:18:03.052Z,100.00
2022-10-15T00:20:30.157Z,100.00
2022-10-15T00:22:56.686Z,100.00
2022-10-15T00:25:23.403Z,100.00
2022-10-15T00:27:49.881Z,100.00
2022-10-15T00:30:17.905Z,100.00
2022-10-15T00:32:44.578Z,100.00
2022-10-15T00:35:11.053Z,100.00
2022-10-15T00:37:37.496Z,100.00
2022-10-15T00:40:04.985Z,100.00
2022-10-15T00:42:32.377Z,100.00
2022-10-15T00:44:59.954Z,100.00
2022-10-15T00:47:41.166Z,100.00
2022-10-15T00:50:12.615Z,100.00
2022-10-15T00:53:01.551Z,100.00
2022-10-15T00:55:34.354Z,100.00
2022-10-15T00:58:05.462Z,100.00
2022-10-15T01:00:33.108Z,100.00
2022-10-15T01:03:00.087Z,100.00
2022-10-15T01:05:28.977Z,100.00
2022-10-15T01:07:55.659Z,100.00
2022-10-15T01:10:27.620Z,100.00
2022-10-15T01:13:04.908Z,100.00
2022-10-15T01:15:46.490Z,100.00
2022-10-15T01:18:22.374Z,100.00
2022-10-15T01:21:27.357Z,100.00
2022-10-15T01:24:22.653Z,100.00
2022-10-15T01:27:13.451Z,100.00
2022-10-15T01:30:03.913Z,100.00
2022-10-15T01:32:37.997Z,100.00
2022-10-15T01:35:20.576Z,100.00
2022-10-15T01:38:07.296Z,100.00
2022-10-15T01:40:42.613Z,100.00
2022-10-15T01:43:15.463Z,100.00
2022-10-15T01:46:14.686Z,100.00
2022-10-15T01:48:49.403Z,100.00
2022-10-15T01:51:18.095Z,100.00
2022-10-15T01:53:46.710Z,100.00
2022-10-15T01:56:18.065Z,100.00
2022-10-15T01:58:46.998Z,100.00
2022-10-15T02:01:13.800Z,100.00
2022-10-15T02:03:50.906Z,100.00
2022-10-15T02:06:39.212Z,100.00
2022-10-15T02:09:57.425Z,100.00
2022-10-15T02:12:53.164Z,100.00
2022-10-15T02:15:28.418Z,100.00
2022-10-15T02:18:04.482Z,100.00
2022-10-15T02:20:45.351Z,100.00
2022-10-15T02:23:18.814Z,100.00
2022-10-15T02:25:47.515Z,100.00
2022-10-15T02:28:17.020Z,100.00
2022-10-15T02:30:46.913Z,100.00
2022-10-15T02:33:16.139Z,100.00
2022-10-15T02:35:44.898Z,100.00
2022-10-15T02:38:15.312Z,100.00
2022-10-15T02:40:44.810Z,100.00
2022-10-15T02:43:14.041Z,100.00
2022-10-15T02:45:41.381Z,100.00
2022-10-15T02:48:08.224Z,100.00
2022-10-15T02:50:34.954Z,100.00
2022-10-15T02:53:02.642Z,100.00
2022-10-15T02:55:29.166Z,100.00
2022-10-15T02:57:55.765Z,100.00
2022-10-15T03:00:22.727Z,100.00
2022-10-15T03:02:49.501Z,100.00
2022-10-15T03:05:18.515Z,100.00
2022-10-15T03:07:45.008Z,100.00
2022-10-15T03:10:11.600Z,100.00
2022-10-15T03:12:38.371Z,100.00
2022-10-15T03:15:06.353Z,100.00
2022-10-15T03:17:33.558Z,100.00
2022-10-15T03:20:00.230Z,100.00
2022-10-15T03:22:27.469Z,100.00
2022-10-15T03:24:53.958Z,100.00
2022-10-15T03:27:26.566Z,100.00
2022-10-15T03:29:53.630Z,100.00
2022-10-15T03:32:22.080Z,100.00
2022-10-15T03:34:48.730Z,100.00
2022-10-15T03:37:17.670Z,100.00
2022-10-15T03:39:45.091Z,100.00
2022-10-15T03:42:12.204Z,100.00
2022-10-15T03:44:44.749Z,100.00
2022-10-15T03:47:14.961Z,100.00
2022-10-15T03:49:46.661Z,100.00
2022-10-15T03:52:13.830Z,100.00
2022-10-15T03:54:41.699Z,100.00
2022-10-15T03:57:09.357Z,100.00
2022-10-15T04:02:15.985Z,100.00
2022-10-15T04:04:42.666Z,100.00
2022-10-15T04:07:09.384Z,100.00
2022-10-15T04:09:36.377Z,100.00
2022-10-15T04:12:21.590Z,100.00
2022-10-15T04:14:48.624Z,100.00
2022-10-15T04:17:15.877Z,100.00
2022-10-15T04:19:44.855Z,100.00
2022-10-15T04:22:13.351Z,100.00
2022-10-15T04:24:45.869Z,100.00
2022-10-15T04:27:17.331Z,100.00
2022-10-15T04:29:44.214Z,100.00
2022-10-15T04:32:15.385Z,100.00
2022-10-15T04:34:42.832Z,100.00
2022-10-15T04:37:10.023Z,100.00
2022-10-15T04:39:37.434Z,100.00
2022-10-15T04:42:04.213Z,100.00
2022-10-15T04:44:33.050Z,100.00
2022-10-15T04:47:00.633Z,100.00
2022-10-15T04:49:41.539Z,100.00
2022-10-15T04:52:27.831Z,100.00
2022-10-15T04:54:58.568Z,100.00
2022-10-15T04:57:27.000Z,100.00
2022-10-15T04:59:57.685Z,100.00
2022-10-15T05:02:33.807Z,100.00
2022-10-15T05:05:26.893Z,100.00
2022-10-15T05:08:04.948Z,100.00
2022-10-15T05:10:52.030Z,100.00
2022-10-15T05:13:19.104Z,100.00
2022-10-15T05:15:45.634Z,100.00
2022-10-15T05:18:12.387Z,100.00
2022-10-15T05:20:48.701Z,100.00
2022-10-15T05:23:18.250Z,100.00
2022-10-15T05:25:54.212Z,100.00
2022-10-15T05:28:23.992Z,100.00
2022-10-15T05:30:50.531Z,100.00
2022-10-15T05:33:17.088Z,100.00
2022-10-15T05:35:43.768Z,100.00
2022-10-15T05:38:10.245Z,100.00
2022-10-15T05:40:39.159Z,100.00
2022-10-15T05:43:11.146Z,100.00
2022-10-15T05:45:37.693Z,100.00
2022-10-15T05:48:06.844Z,100.00
2022-10-15T05:50:34.276Z,100.00
2022-10-15T05:53:02.883Z,100.00
2022-10-15T05:55:45.182Z,100.00
2022-10-15T05:58:11.692Z,100.00
2022-10-15T06:00:39.659Z,100.00
2022-10-15T06:03:06.245Z,100.00
2022-10-15T06:05:32.921Z,100.00
2022-10-15T06:07:59.418Z,100.00
2022-10-15T06:10:28.289Z,100.00
2022-10-15T06:12:55.574Z,100.00
2022-10-15T06:15:22.256Z,100.00
2022-10-15T06:17:53.895Z,100.00
2022-10-15T06:20:20.317Z,100.00
2022-10-15T06:22:46.827Z,100.00
2022-10-15T06:25:13.698Z,100.00
2022-10-15T06:27:40.349Z,100.00
2022-10-15T06:30:08.726Z,100.00
2022-10-15T06:32:35.183Z,100.00
2022-10-15T06:35:02.179Z,100.00
2022-10-15T06:37:30.046Z,100.00
2022-10-15T06:39:58.443Z,100.00
2022-10-15T06:42:25.107Z,100.00
2022-10-15T06:44:55.084Z,100.00
2022-10-15T06:47:22.018Z,100.00
2022-10-15T06:49:49.858Z,100.00
2022-10-15T06:52:16.361Z,100.00
2022-10-15T06:54:42.895Z,100.00
2022-10-15T06:57:10.507Z,100.00
2022-10-15T06:59:40.313Z,100.00
2022-10-15T07:02:10.056Z,100.00
2022-10-15T07:04:36.700Z,100.00
2022-10-15T07:07:03.300Z,100.00
2022-10-15T07:09:30.050Z,100.00
2022-10-15T07:11:56.589Z,100.00
2022-10-15T07:14:23.082Z,100.00
2022-10-15T07:16:49.581Z,100.00
2022-10-15T07:19:16.103Z,100.00
2022-10-15T07:21:42.808Z,100.00
2022-10-15T07:24:10.795Z,100.00
2022-10-15T07:26:37.327Z,100.00
2022-10-15T07:29:04.359Z,100.00
2022-10-15T07:31:31.503Z,100.00
2022-10-15T07:33:58.018Z,100.00
2022-10-15T07:36:25.868Z,100.00
2022-10-15T07:38:52.943Z,100.00
2022-10-15T07:41:19.475Z,100.00
2022-10-15T07:43:45.969Z,100.00
2022-10-15T07:46:12.451Z,100.00
2022-10-15T07:48:38.957Z,100.00
2022-10-15T07:51:07.362Z,100.00
2022-10-15T07:53:34.297Z,100.00
2022-10-15T07:56:03.622Z,100.00
2022-10-15T07:58:34.485Z,100.00
2022-10-15T08:01:08.813Z,100.00
2022-10-15T08:03:36.102Z,100.00
2022-10-15T08:06:07.018Z,100.00
2022-10-15T08:08:34.272Z,100.00
2022-10-15T08:11:11.737Z,100.00
2022-10-15T08:13:41.600Z,100.00
2022-10-15T08:16:13.054Z,100.00
2022-10-15T08:18:40.446Z,100.00
2022-10-15T08:21:08.124Z,100.00
2022-10-15T08:23:35.783Z,100.00
2022-10-15T08:26:03.123Z,100.00
2022-10-15T08:28:30.844Z,100.00
2022-10-15T08:31:02.646Z,100.00
2022-10-15T08:33:32.453Z,100.00
2022-10-15T08:35:58.963Z,100.00
2022-10-15T08:38:25.634Z,100.00
2022-10-15T08:40:54.784Z,100.00
2022-10-15T08:43:37.334Z,100.00
2022-10-15T08:46:11.354Z,100.00
2022-10-15T08:48:50.692Z,100.00
2022-10-15T08:51:20.260Z,100.00
2022-10-15T08:53:54.207Z,100.00
2022-10-15T08:56:37.058Z,100.00
2022-10-15T08:59:25.214Z,100.00
2022-10-15T09:02:03.156Z,100.00
2022-10-15T09:04:51.224Z,100.00
2022-10-15T09:07:34.669Z,100.00
2022-10-15T09:10:17.829Z,100.00
2022-10-15T09:13:07.259Z,100.00
2022-10-15T09:15:41.168Z,100.00
2022-10-15T09:18:17.355Z,99.95
2022-10-15T09:20:44.895Z,99.58
2022-10-15T09:23:18.976Z,98.93
2022-10-15T09:25:52.027Z,97.29
2022-10-15T09:28:21.876Z,97.01
2022-10-15T09:30:53.064Z,96.17
2022-10-15T09:33:43.680Z,97.01
2022-10-15T09:36:25.545Z,97.19
2022-10-15T09:39:04.250Z,96.76
2022-10-15T09:42:03.496Z,95.41
2022-10-15T09:44:36.586Z,94.50
2022-10-15T09:47:33.989Z,92.01
2022-10-15T09:50:03.828Z,91.43
2022-10-15T09:52:52.209Z,91.73
2022-10-15T09:55:58.019Z,90.46
2022-10-15T09:58:33.771Z,90.63
2022-10-15T10:01:05.657Z,89.55
2022-10-15T10:03:36.693Z,89.56
2022-10-15T10:06:11.942Z,88.76
2022-10-15T10:08:54.735Z,87.52
2022-10-15T10:11:24.151Z,85.04
2022-10-15T10:13:59.374Z,84.59
2022-10-15T10:16:26.999Z,84.52
2022-10-15T10:19:15.478Z,83.64
2022-10-15T10:21:43.669Z,81.08
2022-10-15T10:24:26.187Z,81.08
2022-10-15T10:26:52.759Z,80.77
2022-10-15T10:29:33.625Z,79.58
2022-10-15T10:32:28.197Z,80.75
2022-10-15T10:34:55.401Z,81.11
2022-10-15T10:37:23.011Z,80.56
2022-10-15T10:39:59.333Z,79.80
2022-10-15T10:42:38.142Z,79.75
2022-10-15T10:45:18.761Z,80.14
2022-10-15T10:47:45.829Z,80.01
2022-10-15T10:50:34.588Z,78.44
2022-10-15T10:53:19.985Z,76.78
2022-10-15T10:55:46.624Z,75.24
2022-10-15T10:58:26.316Z,74.04
2022-10-15T11:00:55.518Z,74.80
2022-10-15T11:03:38.866Z,74.83
2022-10-15T11:06:35.687Z,75.53
2022-10-15T11:09:14.583Z,74.82
2022-10-15T11:12:14.023Z,74.38
2022-10-15T11:15:30.979Z,75.48
2022-10-15T11:18:28.893Z,73.35
2022-10-15T11:21:26.320Z,73.31
2022-10-15T11:24:26.012Z,73.07
2022-10-15T11:27:10.046Z,72.85
2022-10-15T11:30:03.585Z,72.74
2022-10-15T11:32:47.779Z,73.14
2022-10-15T11:35:51.683Z,73.60
2022-10-15T11:38:24.603Z,74.58
2022-10-15T11:41:15.029Z,74.79
2022-10-15T11:43:44.184Z,74.97
2022-10-15T11:46:44.243Z,75.55
2022-10-15T11:49:54.553Z,75.63
2022-10-15T11:52:37.712Z,75.19
2022-10-15T11:55:13.829Z,74.92
2022-10-15T11:57:42.537Z,75.55
2022-10-15T12:00:27.154Z,75.55
2022-10-15T12:02:55.401Z,75.58
2022-10-15T12:05:32.226Z,75.01
2022-10-15T12:07:59.425Z,74.77
2022-10-15T12:11:03.078Z,73.95
2022-10-15T12:13:56.458Z,73.12
2022-10-15T12:16:41.734Z,73.20
2022-10-15T12:19:13.911Z,71.71
2022-10-15T12:21:45.266Z,70.52
2022-10-15T12:24:39.802Z,69.39
2022-10-15T12:27:22.814Z,69.06
2022-10-15T12:29:59.982Z,68.11
2022-10-15T12:32:36.181Z,68.86
2022-10-15T12:35:06.165Z,68.40
2022-10-15T12:37:36.065Z,68.63
2022-10-15T12:40:17.846Z,68.49
2022-10-15T12:42:44.595Z,69.11
2022-10-15T12:45:22.885Z,67.44
2022-10-15T12:47:50.227Z,67.36
2022-10-15T12:50:28.274Z,67.20
2022-10-15T12:53:18.344Z,66.34
2022-10-15T12:56:28.616Z,65.70
2022-10-15T12:58:56.459Z,66.84
2022-10-15T13:01:23.011Z,66.86
2022-10-15T13:03:52.711Z,66.85
2022-10-15T13:06:22.429Z,66.42
2022-10-15T13:09:11.960Z,67.32
2022-10-15T13:11:48.819Z,67.68
2022-10-15T13:14:36.000Z,68.43
2022-10-15T13:17:14.840Z,68.35
2022-10-15T13:19:48.344Z,68.25
2022-10-15T13:22:24.919Z,68.45
2022-10-15T13:24:52.132Z,69.24
2022-10-15T13:27:37.547Z,70.05
2022-10-15T13:30:13.172Z,70.01
2022-10-15T13:32:47.767Z,70.20
2022-10-15T13:35:33.057Z,70.88
2022-10-15T13:38:00.337Z,69.92
2022-10-15T13:40:29.457Z,69.38
2022-10-15T13:43:19.439Z,70.25
2022-10-15T13:45:47.958Z,71.28
2022-10-15T13:48:22.049Z,71.48
2022-10-15T13:50:52.945Z,71.71
2022-10-15T13:53:24.376Z,71.81
2022-10-15T13:55:54.130Z,72.38
2022-10-15T13:58:29.170Z,73.43
2022-10-15T14:01:08.389Z,73.37
2022-10-15T14:03:36.790Z,73.01
2022-10-15T14:06:19.834Z,72.87
2022-10-15T14:08:48.349Z,72.39
2022-10-15T14:11:15.393Z,72.70
2022-10-15T14:13:49.052Z,73.14
2022-10-15T14:16:19.448Z,71.68
2022-10-15T14:18:49.647Z,70.86
2022-10-15T14:21:19.793Z,70.79
2022-10-15T14:23:47.689Z,71.17
2022-10-15T14:26:16.884Z,70.87
2022-10-15T14:28:50.267Z,71.22
2022-10-15T14:31:38.361Z,72.18
2022-10-15T14:34:35.561Z,71.81
2022-10-15T14:37:03.292Z,71.79
2022-10-15T14:39:32.873Z,71.64
2022-10-15T14:42:05.231Z,72.43
2022-10-15T14:44:48.388Z,73.14
2022-10-15T14:47:24.528Z,73.82
2022-10-15T14:49:59.906Z,73.26
2022-10-15T14:52:28.864Z,73.60
2022-10-15T14:55:15.848Z,75.14
2022-10-15T14:57:45.146Z,75.52
2022-10-15T15:00:24.334Z,77.80
2022-10-15T15:02:54.218Z,79.18
2022-10-15T15:05:24.061Z,80.58
2022-10-15T15:07:51.209Z,81.00
2022-10-15T15:10:18.101Z,81.87
2022-10-15T15:12:49.879Z,83.01
2022-10-15T15:15:18.344Z,83.96
2022-10-15T15:17:45.285Z,85.41
2022-10-15T15:20:12.208Z,85.34
2022-10-15T15:22:40.319Z,85.70
2022-10-15T15:25:16.709Z,86.23
2022-10-15T15:27:43.261Z,86.94
2022-10-15T15:30:40.241Z,88.91
2022-10-15T15:33:11.628Z,89.78
2022-10-15T15:35:52.699Z,91.33
2022-10-15T15:38:21.561Z,92.13
2022-10-15T15:40:49.404Z,92.63
2022-10-15T15:43:19.166Z,92.74
2022-10-15T15:45:46.486Z,93.09
2022-10-15T15:48:14.098Z,93.74
2022-10-15T15:50:41.053Z,93.09
2022-10-15T15:53:07.570Z,93.66
2022-10-15T15:55:34.054Z,93.67
2022-10-15T15:58:00.677Z,93.77
2022-10-15T16:00:27.417Z,94.29
2022-10-15T16:02:57.764Z,95.02
2022-10-15T16:05:24.995Z,95.20
2022-10-15T16:07:51.488Z,95.41
2022-10-15T16:10:18.203Z,95.71
2022-10-15T16:12:44.768Z,95.93
2022-10-15T16:15:14.493Z,95.75
2022-10-15T16:17:43.137Z,96.25
2022-10-15T16:20:10.671Z,96.43
2022-10-15T16:22:37.119Z,96.23
2022-10-15T16:25:05.580Z,97.03
2022-10-15T16:27:34.298Z,97.18
2022-10-15T16:30:01.799Z,97.14
2022-10-15T16:32:28.416Z,97.38
2022-10-15T16:34:54.877Z,97.74
2022-10-15T16:37:21.282Z,98.10
2022-10-15T16:39:47.742Z,98.13
2022-10-15T16:42:14.223Z,98.33
2022-10-15T16:44:40.782Z,98.78
2022-10-15T16:47:08.905Z,98.34
2022-10-15T16:49:35.412Z,98.87
2022-10-15T16:52:01.955Z,99.55
2022-10-15T16:54:28.493Z,99.45
2022-10-15T16:56:55.273Z,99.26
2022-10-15T16:59:22.403Z,99.36
2022-10-15T17:01:48.919Z,99.56
2022-10-15T17:04:15.384Z,99.26
2022-10-15T17:06:42.055Z,99.10
2022-10-15T17:09:08.969Z,99.41
2022-10-15T17:11:40.959Z,99.19
2022-10-15T17:14:10.502Z,99.24
2022-10-15T17:16:40.023Z,99.13
2022-10-15T17:19:07.990Z,99.30
2022-10-15T17:21:35.553Z,99.12
2022-10-15T17:24:04.942Z,98.89
2022-10-15T17:26:36.326Z,98.98
2022-10-15T17:29:03.999Z,98.51
2022-10-15T17:31:30.875Z,98.49
2022-10-15T17:34:03.939Z,97.96
2022-10-15T17:36:32.215Z,98.20
2022-10-15T17:38:59.841Z,98.17
2022-10-15T17:41:29.435Z,98.24
2022-10-15T17:43:57.580Z,98.53
2022-10-15T17:46:27.326Z,99.93
2022-10-15T17:48:55.031Z,100.00
2022-10-15T17:51:27.151Z,100.00
2022-10-15T17:53:57.630Z,100.00
2022-10-15T17:56:30.026Z,100.00
2022-10-15T17:58:58.457Z,100.00
2022-10-15T18:01:39.352Z,100.00
2022-10-15T18:04:12.914Z,100.00
2022-10-15T18:06:43.199Z,100.00
2022-10-15T18:09:12.407Z,100.00
2022-10-15T18:11:38.945Z,100.00
2022-10-15T18:14:05.543Z,100.00
2022-10-15T18:16:32.588Z,100.00
2022-10-15T18:18:59.212Z,100.00
2022-10-15T18:21:27.458Z,100.00
2022-10-15T18:23:56.478Z,100.00
2022-10-15T18:26:23.746Z,100.00
2022-10-15T18:28:51.855Z,100.00
2022-10-15T18:31:19.279Z,100.00
2022-10-15T18:33:54.794Z,100.00
2022-10-15T18:36:24.584Z,100.00
2022-10-15T18:38:51.634Z,100.00
2022-10-15T18:41:22.401Z,100.00
2022-10-15T18:43:53.508Z,100.00
2022-10-15T18:46:20.509Z,100.00
2022-10-15T18:48:47.054Z,100.00
2022-10-15T18:51:13.567Z,100.00
2022-10-15T18:53:40.185Z,100.00
2022-10-15T18:56:08.067Z,100.00
2022-10-15T18:58:34.939Z,100.00
2022-10-15T19:01:14.354Z,100.00
2022-10-15T19:03:40.944Z,100.00
2022-10-15T19:06:08.158Z,100.00
2022-10-15T19:08:34.754Z,100.00
2022-10-15T19:11:08.586Z,100.00
2022-10-15T19:13:36.496Z,100.00
2022-10-15T19:16:04.407Z,100.00
2022-10-15T19:18:32.101Z,100.00
2022-10-15T19:20:58.831Z,100.00
2022-10-15T19:23:26.313Z,100.00
2022-10-15T19:25:52.759Z,100.00
2022-10-15T19:28:19.348Z,100.00
2022-10-15T19:30:54.713Z,100.00
2022-10-15T19:33:21.260Z,100.00
2022-10-15T19:35:47.717Z,100.00
2022-10-15T19:38:14.149Z,100.00
2022-10-15T19:40:44.745Z,100.00
2022-10-15T19:43:13.851Z,100.00
2022-10-15T19:45:45.282Z,100.00
2022-10-15T19:48:14.070Z,100.00
2022-10-15T19:50:42.333Z,100.00
2022-10-15T19:53:13.823Z,100.00
2022-10-15T19:55:40.442Z,100.00
2022-10-15T19:58:07.510Z,100.00
2022-10-15T20:00:34.453Z,100.00
2022-10-15T20:03:01.645Z,100.00
2022-10-15T20:05:28.700Z,100.00
2022-10-15T20:07:56.127Z,100.00
2022-10-15T20:10:25.991Z,100.00
2022-10-15T20:12:53.407Z,100.00
2022-10-15T20:15:20.102Z,100.00
2022-10-15T20:17:47.147Z,100.00
2022-10-15T20:20:13.615Z,100.00
2022-10-15T20:22:40.179Z,100.00
2022-10-15T20:25:06.977Z,100.00
2022-10-15T20:27:33.747Z,97.15
2022-10-15T20:30:00.202Z,96.07
2022-10-15T20:32:35.718Z,94.34
2022-10-15T20:35:04.396Z,93.53
2022-10-15T20:37:30.921Z,94.13
2022-10-15T20:42:29.064Z,93.38
2022-10-15T20:44:55.894Z,93.50
2022-10-15T20:47:24.010Z,92.56
2022-10-15T20:49:53.431Z,91.30
2022-10-15T20:52:23.003Z,90.38
2022-10-15T20:54:50.986Z,89.74
2022-10-15T20:57:17.462Z,87.80
2022-10-15T20:59:44.223Z,87.57
2022-10-15T21:02:10.658Z,86.43
2022-10-15T21:04:37.108Z,85.64
2022-10-15T21:07:03.914Z,86.22
2022-10-15T21:09:30.375Z,86.08
2022-10-15T21:11:57.045Z,86.26
2022-10-15T21:14:23.779Z,83.01
2022-10-15T21:16:50.328Z,80.70
2022-10-15T21:19:16.859Z,77.55
2022-10-15T21:21:43.369Z,77.09
2022-10-15T21:24:09.808Z,74.62
2022-10-15T21:26:36.440Z,73.86
2022-10-15T21:29:03.227Z,74.00
2022-10-15T21:31:29.987Z,74.15
2022-10-15T21:33:56.999Z,76.21
2022-10-15T21:36:26.596Z,77.65
2022-10-15T21:38:58.884Z,78.35
2022-10-15T21:41:27.127Z,79.17
2022-10-15T21:43:54.006Z,78.37
2022-10-15T21:46:20.484Z,78.69
2022-10-15T21:48:47.099Z,77.45
2022-10-15T21:51:16.748Z,77.70
2022-10-15T21:53:44.059Z,75.26
2022-10-15T21:56:11.519Z,75.72
2022-10-15T21:58:39.131Z,75.30
2022-10-15T22:01:09.888Z,74.45
2022-10-15T22:03:36.800Z,74.70
2022-10-15T22:06:03.918Z,75.13
2022-10-15T22:08:31.090Z,76.39
2022-10-15T22:11:14.055Z,77.42
2022-10-15T22:13:44.936Z,78.07
2022-10-15T22:16:12.308Z,78.86
2022-10-15T22:18:39.915Z,79.14
2022-10-15T22:21:17.163Z,79.83
2022-10-15T22:23:47.633Z,79.88
2022-10-15T22:26:16.451Z,80.74
2022-10-15T22:28:44.881Z,80.62
2022-10-15T22:31:16.472Z,81.20
2022-10-15T22:33:44.646Z,80.93
2022-10-15T22:36:17.502Z,81.03
2022-10-15T22:38:45.985Z,81.50
2022-10-15T22:41:13.421Z,82.28
2022-10-15T22:43:40.280Z,82.52
2022-10-15T22:46:07.691Z,83.09
2022-10-15T22:48:39.402Z,83.66
2022-10-15T22:51:08.603Z,83.55
2022-10-15T22:53:35.194Z,83.35
2022-10-15T22:56:04.333Z,83.59
2022-10-15T22:58:31.998Z,83.53
2022-10-15T23:01:13.298Z,83.71
2022-10-15T23:03:41.575Z,83.89
2022-10-15T23:06:08.270Z,83.65
2022-10-15T23:08:35.691Z,83.75
2022-10-15T23:11:10.850Z,83.62
2022-10-15T23:13:38.798Z,83.98
2022-10-15T23:16:11.046Z,83.39
2022-10-15T23:18:37.942Z,83.43
2022-10-15T23:21:06.708Z,83.45
2022-10-15T23:23:33.415Z,83.45
2022-10-15T23:25:59.863Z,83.19
2022-10-15T23:28:26.583Z,83.60
2022-10-15T23:30:53.143Z,83.67
2022-10-15T23:33:19.595Z,83.67
2022-10-15T23:35:46.135Z,83.41
2022-10-15T23:38:13.442Z,84.11
2022-10-15T23:40:39.890Z,83.77
2022-10-15T23:43:06.356Z,83.92
2022-10-15T23:45:34.841Z,84.19
2022-10-15T23:48:03.377Z,84.23
2022-10-15T23:50:36.452Z,84.25
2022-10-15T23:53:03.357Z,84.12
2022-10-15T23:55:29.811Z,84.19
2022-10-15T23:57:56.486Z,84.38
